Time,TemperatureF,DewpointF,PressureIn,WindDirection,WindDirectionDegrees,WindSpeedMPH,WindSpeedGustMPH,Humidity,HourlyPrecipIn,Conditions,Clouds,dailyrainin,SoftwareType,DateUTC
2013-02-22 00:01:00,29.0,-99.9,-100.00,NNE,30,0.0,2.0,-999,-99.99,,,-99.99,,2013-02-22 08:01:00,
2013-02-22 00:11:00,29.0,-99.9,-100.00,NNE,30,0.0,2.0,-999,-99.99,,,-99.99,,2013-02-22 08:11:00,
2013-02-22 00:20:00,28.0,-99.9,-100.00,NNW,332,0.0,2.0,-999,-99.99,,,-99.99,,2013-02-22 08:20:00,
2013-02-22 01:03:00,28.0,-99.9,-100.00,NNW,332,0.0,2.0,-999,-99.99,,,-99.99,,2013-02-22 09:03:00,
2013-02-22 01:10:00,28.0,-99.9,-100.00,WNW,292,0.0,1.0,-999,-99.99,,,-99.99,,2013-02-22 09:10:00,
2013-02-22 01:11:00,28.0,-99.9,-100.00,NNW,332,0.0,2.0,-999,-99.99,,,-99.99,,2013-02-22 09:11:00,
2013-02-22 02:02:00,28.0,-99.9,-100.00,WNW,292,0.0,1.0,-999,-99.99,,,-99.99,,2013-02-22 10:02:00,
2013-02-22 03:01:00,28.0,-99.9,-100.00,NW,326,0.0,1.0,-999,-99.99,,,-99.99,,2013-02-22 11:01:00,
2013-02-22 03:10:00,28.0,-99.9,-100.00,NE,40,0.0,1.0,-999,-99.99,,,-99.99,,2013-02-22 11:10:00,
2013-02-22 03:11:00,28.0,-99.9,-100.00,NW,326,0.0,1.0,-999,-99.99,,,-99.99,,2013-02-22 11:11:00,
2013-02-22 04:02:00,28.0,-99.9,-100.00,NE,40,0.0,1.0,-999,-99.99,,,-99.99,,2013-02-22 12:02:00,
2013-02-22 05:02:00,28.0,-99.9,-100.00,NW,308,0.0,1.0,-999,-99.99,,,-99.99,,2013-02-22 13:02:00,
2013-02-22 05:11:00,28.0,-99.9,-100.00,NW,308,0.0,1.0,-999,-99.99,,,-99.99,,2013-02-22 13:11:00,
2013-02-22 06:01:00,29.0,-99.9,-100.00,NE,48,0.0,1.0,-999,-99.99,,,-99.99,,2013-02-22 14:01:00,
2013-02-22 06:12:00,29.0,-99.9,-100.00,NE,48,0.0,1.0,-999,-99.99,,,-99.99,,2013-02-22 14:12:00,
2013-02-22 07:02:00,29.0,-99.9,-100.00,North,-999,0.0,0.0,-999,-99.99,,,-99.99,,2013-02-22 15:02:00,
2013-02-22 07:12:00,29.0,-99.9,-100.00,North,-999,0.0,0.0,-999,-99.99,,,-99.99,,2013-02-22 15:12:00,
2013-02-22 08:02:00,29.0,-99.9,-100.00,West,271,0.0,1.0,-999,-99.99,,,-99.99,,2013-02-22 16:02:00,
2013-02-22 09:01:00,30.0,-99.9,-100.00,North,-999,0.0,0.0,-999,-99.99,,,-99.99,,2013-02-22 17:01:00,
2013-02-22 09:12:00,30.0,-99.9,-100.00,North,-999,0.0,0.0,-999,-99.99,,,-99.99,,2013-02-22 17:12:00,
2013-02-22 10:02:00,31.0,-99.9,-100.00,SSW,213,0.0,1.0,-999,-99.99,,,-99.99,,2013-02-22 18:02:00,
2013-02-22 11:01:00,31.0,-99.9,-100.00,West,263,1.0,3.0,-999,-99.99,,,-99.99,,2013-02-22 19:01:00,
2013-02-22 11:11:00,31.0,-99.9,-100.00,West,263,1.0,3.0,-999,-99.99,,,-99.99,,2013-02-22 19:11:00,
2013-02-22 12:01:00,32.0,-99.9,-100.00,North,-999,0.0,0.0,-999,-99.99,,,-99.99,,2013-02-22 20:01:00,
2013-02-22 12:10:00,32.0,-99.9,-100.00,SSE,155,0.0,1.0,-999,-99.99,,,-99.99,,2013-02-22 20:10:00,
2013-02-22 13:02:00,32.0,-99.9,-100.00,SSE,155,0.0,1.0,-999,-99.99,,,-99.99,,2013-02-22 21:02:00,
2013-02-22 14:02:00,32.0,-99.9,-100.00,North,-999,0.0,0.0,-999,-99.99,,,-99.99,,2013-02-22 22:02:00,
2013-02-22 14:10:00,32.0,-99.9,-100.00,North,-999,0.0,0.0,-999,-99.99,,,-99.99,,2013-02-22 22:10:00,
2013-02-22 15:00:00,33.0,-99.9,-100.00,West,277,1.0,3.0,-999,-99.99,,,-99.99,,2013-02-22 23:00:00,
2013-02-22 15:01:00,32.0,-99.9,-100.00,North,-999,0.0,0.0,-999,-99.99,,,-99.99,,2013-02-22 23:01:00,
2013-02-22 17:00:00,32.0,-99.9,-100.00,ESE,113,1.0,2.0,-999,-99.99,,,-99.99,,2013-02-23 01:00:00,
2013-02-22 17:02:00,32.0,-99.9,-100.00,NW,315,1.0,5.0,-999,-99.99,,,-99.99,,2013-02-23 01:02:00,
2013-02-22 17:11:00,32.0,-99.9,-100.00,NW,315,1.0,5.0,-999,-99.99,,,-99.99,,2013-02-23 01:11:00,
2013-02-22 18:10:00,31.0,-99.9,-100.00,ESE,106,1.0,5.0,-999,-99.99,,,-99.99,,2013-02-23 02:10:00,
2013-02-22 19:02:00,31.0,-99.9,-100.00,ESE,106,1.0,5.0,-999,-99.99,,,-99.99,,2013-02-23 03:02:00,
2013-02-22 20:01:00,31.0,-99.9,-100.00,SSE,154,1.0,3.0,-999,-99.99,,,-99.99,,2013-02-23 04:01:00,
2013-02-22 20:10:00,31.0,-99.9,-100.00,SE,130,0.0,1.0,-999,-99.99,,,-99.99,,2013-02-23 04:10:00,
2013-02-22 20:11:00,31.0,-99.9,-100.00,SSE,154,1.0,3.0,-999,-99.99,,,-99.99,,2013-02-23 04:11:00,
2013-02-22 21:03:00,31.0,-99.9,-100.00,SE,130,0.0,1.0,-999,-99.99,,,-99.99,,2013-02-23 05:03:00,
2013-02-22 22:02:00,31.0,-99.9,-100.00,NE,38,0.0,2.0,-999,-99.99,,,-99.99,,2013-02-23 06:02:00,
2013-02-22 22:11:00,31.0,-99.9,-100.00,NE,38,0.0,2.0,-999,-99.99,,,-99.99,,2013-02-23 06:11:00,
2013-02-22 23:01:00,30.0,-99.9,-100.00,ESE,110,2.0,7.0,-999,-99.99,,,-99.99,,2013-02-23 07:01:00,